sensor_id;sensor_type;location;lat;lon;timestamp;P1;durP1;ratioP1;P2;durP2;ratioP2
18651;SDS011;9455;54.302;10.124;2022-08-14T00:01:48;3.60;;;1.90;;
18651;SDS011;9455;54.302;10.124;2022-08-14T00:04:14;2.97;;;2.20;;
18651;SDS011;9455;54.302;10.124;2022-08-14T00:06:42;4.83;;;2.50;;
18651;SDS011;9455;54.302;10.124;2022-08-14T00:09:09;4.40;;;2.10;;
18651;SDS011;9455;54.302;10.124;2022-08-14T00:11:35;2.87;;;2.37;;
18651;SDS011;9455;54.302;10.124;2022-08-14T00:14:02;8.13;;;2.60;;
18651;SDS011;9455;54.302;10.124;2022-08-14T00:16:29;3.60;;;1.93;;
18651;SDS011;9455;54.302;10.124;2022-08-14T00:18:56;9.40;;;2.10;;
18651;SDS011;9455;54.302;10.124;2022-08-14T00:21:24;3.63;;;2.00;;
18651;SDS011;9455;54.302;10.124;2022-08-14T00:23:52;2.67;;;2.47;;
18651;SDS011;9455;54.302;10.124;2022-08-14T00:26:20;2.30;;;2.20;;
18651;SDS011;9455;54.302;10.124;2022-08-14T00:28:47;2.10;;;2.00;;
18651;SDS011;9455;54.302;10.124;2022-08-14T00:31:14;2.10;;;2.00;;
18651;SDS011;9455;54.302;10.124;2022-08-14T00:33:40;1.83;;;1.83;;
18651;SDS011;9455;54.302;10.124;2022-08-14T00:36:07;2.23;;;2.13;;
18651;SDS011;9455;54.302;10.124;2022-08-14T00:38:34;2.17;;;2.00;;
18651;SDS011;9455;54.302;10.124;2022-08-14T00:41:03;2.00;;;1.90;;
18651;SDS011;9455;54.302;10.124;2022-08-14T00:43:31;2.50;;;2.10;;
18651;SDS011;9455;54.302;10.124;2022-08-14T00:45:59;2.60;;;2.40;;
18651;SDS011;9455;54.302;10.124;2022-08-14T00:48:27;2.57;;;2.37;;
18651;SDS011;9455;54.302;10.124;2022-08-14T00:50:54;2.47;;;2.37;;
18651;SDS011;9455;54.302;10.124;2022-08-14T00:53:20;2.43;;;2.33;;
18651;SDS011;9455;54.302;10.124;2022-08-14T00:55:49;5.73;;;2.10;;
18651;SDS011;9455;54.302;10.124;2022-08-14T00:58:20;2.60;;;2.20;;
18651;SDS011;9455;54.302;10.124;2022-08-14T01:00:56;6.40;;;2.20;;
18651;SDS011;9455;54.302;10.124;2022-08-14T01:03:23;2.90;;;2.60;;
18651;SDS011;9455;54.302;10.124;2022-08-14T01:05:51;2.30;;;2.07;;
18651;SDS011;9455;54.302;10.124;2022-08-14T01:08:19;5.47;;;2.67;;
18651;SDS011;9455;54.302;10.124;2022-08-14T01:10:47;3.03;;;2.33;;
18651;SDS011;9455;54.302;10.124;2022-08-14T01:13:18;2.90;;;2.80;;
18651;SDS011;9455;54.302;10.124;2022-08-14T01:15:48;4.57;;;2.60;;
18651;SDS011;9455;54.302;10.124;2022-08-14T01:18:16;3.50;;;2.33;;
18651;SDS011;9455;54.302;10.124;2022-08-14T01:21:01;8.27;;;2.50;;
18651;SDS011;9455;54.302;10.124;2022-08-14T01:23:32;4.70;;;2.20;;
18651;SDS011;9455;54.302;10.124;2022-08-14T01:25:59;2.53;;;2.30;;
18651;SDS011;9455;54.302;10.124;2022-08-14T01:28:26;5.13;;;2.70;;
18651;SDS011;9455;54.302;10.124;2022-08-14T01:30:55;2.60;;;2.30;;
18651;SDS011;9455;54.302;10.124;2022-08-14T01:33:22;2.90;;;2.60;;
18651;SDS011;9455;54.302;10.124;2022-08-14T01:35:53;5.33;;;2.30;;
18651;SDS011;9455;54.302;10.124;2022-08-14T01:38:20;3.07;;;2.53;;
18651;SDS011;9455;54.302;10.124;2022-08-14T01:40:49;3.47;;;2.70;;
18651;SDS011;9455;54.302;10.124;2022-08-14T01:43:16;2.63;;;2.50;;
18651;SDS011;9455;54.302;10.124;2022-08-14T01:45:43;2.60;;;2.40;;
18651;SDS011;9455;54.302;10.124;2022-08-14T01:48:10;4.00;;;2.33;;
18651;SDS011;9455;54.302;10.124;2022-08-14T01:50:37;5.63;;;2.40;;
18651;SDS011;9455;54.302;10.124;2022-08-14T01:53:05;2.30;;;2.20;;
18651;SDS011;9455;54.302;10.124;2022-08-14T01:55:32;2.80;;;2.60;;
18651;SDS011;9455;54.302;10.124;2022-08-14T01:58:00;5.90;;;2.53;;
18651;SDS011;9455;54.302;10.124;2022-08-14T02:00:27;3.67;;;2.70;;
18651;SDS011;9455;54.302;10.124;2022-08-14T02:02:54;3.87;;;2.77;;
18651;SDS011;9455;54.302;10.124;2022-08-14T02:05:21;4.60;;;3.00;;
18651;SDS011;9455;54.302;10.124;2022-08-14T02:07:55;2.87;;;2.57;;
18651;SDS011;9455;54.302;10.124;2022-08-14T02:10:22;7.23;;;2.73;;
18651;SDS011;9455;54.302;10.124;2022-08-14T02:12:49;4.20;;;2.47;;
18651;SDS011;9455;54.302;10.124;2022-08-14T02:15:17;4.30;;;2.30;;
18651;SDS011;9455;54.302;10.124;2022-08-14T02:17:46;4.07;;;2.53;;
18651;SDS011;9455;54.302;10.124;2022-08-14T02:20:13;4.20;;;2.67;;
18651;SDS011;9455;54.302;10.124;2022-08-14T02:22:41;4.13;;;2.80;;
18651;SDS011;9455;54.302;10.124;2022-08-14T02:25:09;3.50;;;2.30;;
18651;SDS011;9455;54.302;10.124;2022-08-14T02:27:36;3.43;;;2.47;;
18651;SDS011;9455;54.302;10.124;2022-08-14T02:30:06;2.60;;;2.40;;
18651;SDS011;9455;54.302;10.124;2022-08-14T02:32:34;2.87;;;2.47;;
18651;SDS011;9455;54.302;10.124;2022-08-14T02:35:02;2.57;;;2.37;;
18651;SDS011;9455;54.302;10.124;2022-08-14T02:37:34;2.73;;;2.63;;
18651;SDS011;9455;54.302;10.124;2022-08-14T02:40:00;2.87;;;2.67;;
18651;SDS011;9455;54.302;10.124;2022-08-14T02:42:27;2.73;;;2.53;;
18651;SDS011;9455;54.302;10.124;2022-08-14T02:44:54;3.10;;;2.33;;
18651;SDS011;9455;54.302;10.124;2022-08-14T02:47:20;5.33;;;2.43;;
18651;SDS011;9455;54.302;10.124;2022-08-14T02:49:49;2.60;;;2.30;;
18651;SDS011;9455;54.302;10.124;2022-08-14T02:52:15;5.27;;;2.30;;
18651;SDS011;9455;54.302;10.124;2022-08-14T02:54:42;2.47;;;2.33;;
18651;SDS011;9455;54.302;10.124;2022-08-14T02:57:09;4.47;;;2.33;;
18651;SDS011;9455;54.302;10.124;2022-08-14T02:59:37;6.13;;;2.37;;
18651;SDS011;9455;54.302;10.124;2022-08-14T03:02:05;3.03;;;2.80;;
18651;SDS011;9455;54.302;10.124;2022-08-14T03:04:34;6.43;;;2.30;;
18651;SDS011;9455;54.302;10.124;2022-08-14T03:07:02;3.13;;;2.50;;
18651;SDS011;9455;54.302;10.124;2022-08-14T03:09:28;5.00;;;2.53;;
18651;SDS011;9455;54.302;10.124;2022-08-14T03:11:55;13.23;;;2.73;;
18651;SDS011;9455;54.302;10.124;2022-08-14T03:14:22;3.33;;;2.53;;
18651;SDS011;9455;54.302;10.124;2022-08-14T03:16:50;2.17;;;1.97;;
18651;SDS011;9455;54.302;10.124;2022-08-14T03:19:16;2.33;;;2.13;;
18651;SDS011;9455;54.302;10.124;2022-08-14T03:21:43;2.20;;;2.10;;
18651;SDS011;9455;54.302;10.124;2022-08-14T03:24:11;2.87;;;2.23;;
18651;SDS011;9455;54.302;10.124;2022-08-14T03:26:38;2.27;;;2.10;;
18651;SDS011;9455;54.302;10.124;2022-08-14T03:29:06;4.60;;;2.00;;
18651;SDS011;9455;54.302;10.124;2022-08-14T03:31:33;4.80;;;2.17;;
18651;SDS011;9455;54.302;10.124;2022-08-14T03:34:00;2.47;;;2.27;;
18651;SDS011;9455;54.302;10.124;2022-08-14T03:36:27;12.47;;;2.63;;
18651;SDS011;9455;54.302;10.124;2022-08-14T03:38:56;2.53;;;2.40;;
18651;SDS011;9455;54.302;10.124;2022-08-14T03:41:25;9.83;;;2.40;;
18651;SDS011;9455;54.302;10.124;2022-08-14T03:43:54;2.43;;;2.13;;
18651;SDS011;9455;54.302;10.124;2022-08-14T03:46:22;4.53;;;2.10;;
18651;SDS011;9455;54.302;10.124;2022-08-14T03:48:50;2.83;;;2.63;;
18651;SDS011;9455;54.302;10.124;2022-08-14T03:51:18;2.87;;;2.17;;
18651;SDS011;9455;54.302;10.124;2022-08-14T03:53:46;2.67;;;2.33;;
18651;SDS011;9455;54.302;10.124;2022-08-14T03:56:15;2.30;;;2.10;;
18651;SDS011;9455;54.302;10.124;2022-08-14T03:58:44;7.57;;;2.50;;
18651;SDS011;9455;54.302;10.124;2022-08-14T04:01:12;4.00;;;2.20;;
18651;SDS011;9455;54.302;10.124;2022-08-14T04:03:39;2.30;;;2.20;;
18651;SDS011;9455;54.302;10.124;2022-08-14T04:06:06;2.40;;;2.13;;
18651;SDS011;9455;54.302;10.124;2022-08-14T04:08:34;2.53;;;2.40;;
18651;SDS011;9455;54.302;10.124;2022-08-14T04:11:01;3.63;;;2.60;;
18651;SDS011;9455;54.302;10.124;2022-08-14T04:13:29;6.10;;;2.27;;
18651;SDS011;9455;54.302;10.124;2022-08-14T04:15:57;3.23;;;2.20;;
18651;SDS011;9455;54.302;10.124;2022-08-14T04:18:25;5.90;;;2.37;;
18651;SDS011;9455;54.302;10.124;2022-08-14T04:20:51;1.97;;;1.93;;
18651;SDS011;9455;54.302;10.124;2022-08-14T04:23:19;3.73;;;1.90;;
18651;SDS011;9455;54.302;10.124;2022-08-14T04:25:46;4.73;;;1.87;;
18651;SDS011;9455;54.302;10.124;2022-08-14T04:28:13;2.43;;;2.20;;
18651;SDS011;9455;54.302;10.124;2022-08-14T04:30:40;3.67;;;2.33;;
18651;SDS011;9455;54.302;10.124;2022-08-14T04:33:08;3.47;;;1.90;;
18651;SDS011;9455;54.302;10.124;2022-08-14T04:35:34;7.13;;;2.30;;
18651;SDS011;9455;54.302;10.124;2022-08-14T04:38:04;5.93;;;2.33;;
18651;SDS011;9455;54.302;10.124;2022-08-14T04:40:48;2.50;;;2.40;;
18651;SDS011;9455;54.302;10.124;2022-08-14T04:43:32;2.33;;;2.13;;
18651;SDS011;9455;54.302;10.124;2022-08-14T04:46:04;4.37;;;2.03;;
18651;SDS011;9455;54.302;10.124;2022-08-14T04:48:33;4.63;;;2.27;;
18651;SDS011;9455;54.302;10.124;2022-08-14T04:50:59;3.07;;;1.93;;
18651;SDS011;9455;54.302;10.124;2022-08-14T04:53:27;3.37;;;2.40;;
18651;SDS011;9455;54.302;10.124;2022-08-14T04:55:55;2.10;;;2.00;;
18651;SDS011;9455;54.302;10.124;2022-08-14T04:58:23;5.13;;;2.53;;
18651;SDS011;9455;54.302;10.124;2022-08-14T05:00:52;3.80;;;2.03;;
18651;SDS011;9455;54.302;10.124;2022-08-14T05:03:20;2.00;;;1.90;;
18651;SDS011;9455;54.302;10.124;2022-08-14T05:05:50;6.63;;;2.33;;
18651;SDS011;9455;54.302;10.124;2022-08-14T05:08:17;2.10;;;2.00;;
18651;SDS011;9455;54.302;10.124;2022-08-14T05:10:46;2.00;;;2.00;;
18651;SDS011;9455;54.302;10.124;2022-08-14T05:13:16;2.20;;;2.10;;
18651;SDS011;9455;54.302;10.124;2022-08-14T05:15:43;2.37;;;2.13;;
18651;SDS011;9455;54.302;10.124;2022-08-14T05:18:11;10.47;;;1.90;;
18651;SDS011;9455;54.302;10.124;2022-08-14T05:20:41;5.77;;;1.97;;
18651;SDS011;9455;54.302;10.124;2022-08-14T05:23:11;3.70;;;2.00;;
18651;SDS011;9455;54.302;10.124;2022-08-14T05:25:38;9.17;;;2.30;;
18651;SDS011;9455;54.302;10.124;2022-08-14T05:28:07;1.97;;;1.87;;
18651;SDS011;9455;54.302;10.124;2022-08-14T05:30:38;10.80;;;2.13;;
18651;SDS011;9455;54.302;10.124;2022-08-14T05:33:08;2.20;;;1.77;;
18651;SDS011;9455;54.302;10.124;2022-08-14T05:35:36;3.17;;;2.00;;
18651;SDS011;9455;54.302;10.124;2022-08-14T05:38:05;2.03;;;1.83;;
18651;SDS011;9455;54.302;10.124;2022-08-14T05:40:34;2.20;;;1.90;;
18651;SDS011;9455;54.302;10.124;2022-08-14T05:43:01;7.23;;;1.83;;
18651;SDS011;9455;54.302;10.124;2022-08-14T05:45:28;2.83;;;2.10;;
18651;SDS011;9455;54.302;10.124;2022-08-14T05:47:54;4.60;;;2.20;;
18651;SDS011;9455;54.302;10.124;2022-08-14T05:50:21;4.10;;;2.10;;
18651;SDS011;9455;54.302;10.124;2022-08-14T05:52:48;4.57;;;2.00;;
18651;SDS011;9455;54.302;10.124;2022-08-14T05:55:16;8.37;;;1.70;;
18651;SDS011;9455;54.302;10.124;2022-08-14T05:57:48;2.07;;;1.80;;
18651;SDS011;9455;54.302;10.124;2022-08-14T06:00:17;11.00;;;2.30;;
18651;SDS011;9455;54.302;10.124;2022-08-14T06:02:45;4.40;;;1.60;;
18651;SDS011;9455;54.302;10.124;2022-08-14T06:05:12;3.40;;;1.50;;
18651;SDS011;9455;54.302;10.124;2022-08-14T06:07:38;4.17;;;1.80;;
18651;SDS011;9455;54.302;10.124;2022-08-14T06:10:06;1.67;;;1.57;;
18651;SDS011;9455;54.302;10.124;2022-08-14T06:12:34;3.13;;;1.60;;
18651;SDS011;9455;54.302;10.124;2022-08-14T06:15:03;4.10;;;1.73;;
18651;SDS011;9455;54.302;10.124;2022-08-14T06:17:30;6.40;;;1.97;;
18651;SDS011;9455;54.302;10.124;2022-08-14T06:19:57;5.57;;;1.73;;
18651;SDS011;9455;54.302;10.124;2022-08-14T06:22:24;6.53;;;2.50;;
18651;SDS011;9455;54.302;10.124;2022-08-14T06:24:51;2.83;;;1.90;;
18651;SDS011;9455;54.302;10.124;2022-08-14T06:27:18;3.33;;;2.10;;
18651;SDS011;9455;54.302;10.124;2022-08-14T06:29:44;3.37;;;1.83;;
18651;SDS011;9455;54.302;10.124;2022-08-14T06:32:12;1.70;;;1.60;;
18651;SDS011;9455;54.302;10.124;2022-08-14T06:34:39;5.43;;;1.63;;
18651;SDS011;9455;54.302;10.124;2022-08-14T06:37:05;2.40;;;1.53;;
18651;SDS011;9455;54.302;10.124;2022-08-14T06:39:32;2.27;;;1.60;;
18651;SDS011;9455;54.302;10.124;2022-08-14T06:41:59;6.80;;;2.00;;
18651;SDS011;9455;54.302;10.124;2022-08-14T06:44:25;4.10;;;2.07;;
18651;SDS011;9455;54.302;10.124;2022-08-14T06:46:52;4.40;;;1.77;;
18651;SDS011;9455;54.302;10.124;2022-08-14T06:49:20;4.87;;;1.73;;
18651;SDS011;9455;54.302;10.124;2022-08-14T06:51:47;6.33;;;1.67;;
18651;SDS011;9455;54.302;10.124;2022-08-14T06:54:13;3.57;;;1.63;;
18651;SDS011;9455;54.302;10.124;2022-08-14T06:56:40;5.17;;;1.80;;
18651;SDS011;9455;54.302;10.124;2022-08-14T06:59:06;3.43;;;1.90;;
18651;SDS011;9455;54.302;10.124;2022-08-14T07:01:33;5.07;;;2.20;;
18651;SDS011;9455;54.302;10.124;2022-08-14T07:04:17;4.13;;;2.03;;
18651;SDS011;9455;54.302;10.124;2022-08-14T07:07:02;8.97;;;2.17;;
18651;SDS011;9455;54.302;10.124;2022-08-14T07:09:29;3.57;;;1.70;;
18651;SDS011;9455;54.302;10.124;2022-08-14T07:11:55;3.33;;;2.70;;
18651;SDS011;9455;54.302;10.124;2022-08-14T07:14:22;3.57;;;1.70;;
18651;SDS011;9455;54.302;10.124;2022-08-14T07:16:49;6.83;;;1.90;;
18651;SDS011;9455;54.302;10.124;2022-08-14T07:19:15;7.73;;;2.27;;
18651;SDS011;9455;54.302;10.124;2022-08-14T07:21:42;3.23;;;2.17;;
18651;SDS011;9455;54.302;10.124;2022-08-14T07:24:10;6.37;;;2.20;;
18651;SDS011;9455;54.302;10.124;2022-08-14T07:26:37;6.77;;;2.20;;
18651;SDS011;9455;54.302;10.124;2022-08-14T07:29:04;4.43;;;2.20;;
18651;SDS011;9455;54.302;10.124;2022-08-14T07:31:31;8.83;;;1.90;;
18651;SDS011;9455;54.302;10.124;2022-08-14T07:33:58;6.30;;;1.90;;
18651;SDS011;9455;54.302;10.124;2022-08-14T07:36:24;6.13;;;1.77;;
18651;SDS011;9455;54.302;10.124;2022-08-14T07:38:51;11.57;;;1.97;;
18651;SDS011;9455;54.302;10.124;2022-08-14T07:41:19;6.70;;;1.90;;
18651;SDS011;9455;54.302;10.124;2022-08-14T07:43:46;5.53;;;1.93;;
18651;SDS011;9455;54.302;10.124;2022-08-14T07:46:13;6.77;;;1.97;;
18651;SDS011;9455;54.302;10.124;2022-08-14T07:48:40;4.60;;;2.07;;
18651;SDS011;9455;54.302;10.124;2022-08-14T07:51:08;4.80;;;2.00;;
18651;SDS011;9455;54.302;10.124;2022-08-14T07:53:35;3.90;;;2.10;;
18651;SDS011;9455;54.302;10.124;2022-08-14T07:56:01;5.00;;;1.77;;
18651;SDS011;9455;54.302;10.124;2022-08-14T07:58:30;19.33;;;2.50;;
18651;SDS011;9455;54.302;10.124;2022-08-14T08:00:57;10.10;;;1.90;;
18651;SDS011;9455;54.302;10.124;2022-08-14T08:03:25;4.47;;;1.83;;
18651;SDS011;9455;54.302;10.124;2022-08-14T08:05:53;6.60;;;1.80;;
18651;SDS011;9455;54.302;10.124;2022-08-14T08:08:20;5.67;;;1.80;;
18651;SDS011;9455;54.302;10.124;2022-08-14T08:10:46;2.90;;;2.07;;
18651;SDS011;9455;54.302;10.124;2022-08-14T08:13:14;6.33;;;1.90;;
18651;SDS011;9455;54.302;10.124;2022-08-14T08:15:44;4.87;;;1.90;;
18651;SDS011;9455;54.302;10.124;2022-08-14T08:18:12;2.70;;;2.07;;
18651;SDS011;9455;54.302;10.124;2022-08-14T08:20:41;5.30;;;1.80;;
18651;SDS011;9455;54.302;10.124;2022-08-14T08:23:10;1.97;;;1.83;;
18651;SDS011;9455;54.302;10.124;2022-08-14T08:25:38;2.63;;;2.17;;
18651;SDS011;9455;54.302;10.124;2022-08-14T08:28:07;14.23;;;2.20;;
18651;SDS011;9455;54.302;10.124;2022-08-14T08:30:37;2.17;;;2.07;;
18651;SDS011;9455;54.302;10.124;2022-08-14T08:33:06;2.23;;;2.10;;
18651;SDS011;9455;54.302;10.124;2022-08-14T08:35:35;6.87;;;1.83;;
18651;SDS011;9455;54.302;10.124;2022-08-14T08:38:05;10.13;;;2.17;;
18651;SDS011;9455;54.302;10.124;2022-08-14T08:40:33;8.17;;;2.13;;
18651;SDS011;9455;54.302;10.124;2022-08-14T08:43:01;5.80;;;2.43;;
18651;SDS011;9455;54.302;10.124;2022-08-14T08:45:29;14.87;;;2.30;;
18651;SDS011;9455;54.302;10.124;2022-08-14T08:47:56;3.20;;;1.70;;
18651;SDS011;9455;54.302;10.124;2022-08-14T08:50:26;5.40;;;1.87;;
18651;SDS011;9455;54.302;10.124;2022-08-14T08:52:54;2.07;;;1.83;;
18651;SDS011;9455;54.302;10.124;2022-08-14T08:55:26;2.17;;;1.93;;
18651;SDS011;9455;54.302;10.124;2022-08-14T08:57:54;3.17;;;2.20;;
18651;SDS011;9455;54.302;10.124;2022-08-14T09:00:25;6.83;;;2.70;;
18651;SDS011;9455;54.302;10.124;2022-08-14T09:02:56;2.50;;;2.30;;
18651;SDS011;9455;54.302;10.124;2022-08-14T09:05:25;2.80;;;1.80;;
18651;SDS011;9455;54.302;10.124;2022-08-14T09:07:52;3.17;;;2.00;;
18651;SDS011;9455;54.302;10.124;2022-08-14T09:10:19;1.93;;;1.83;;
18651;SDS011;9455;54.302;10.124;2022-08-14T09:12:46;8.10;;;2.43;;
18651;SDS011;9455;54.302;10.124;2022-08-14T09:15:13;4.80;;;1.63;;
18651;SDS011;9455;54.302;10.124;2022-08-14T09:17:40;2.27;;;2.07;;
18651;SDS011;9455;54.302;10.124;2022-08-14T09:20:08;1.70;;;1.70;;
18651;SDS011;9455;54.302;10.124;2022-08-14T09:22:38;6.30;;;2.37;;
18651;SDS011;9455;54.302;10.124;2022-08-14T09:25:05;6.17;;;2.67;;
18651;SDS011;9455;54.302;10.124;2022-08-14T09:27:32;8.33;;;2.20;;
18651;SDS011;9455;54.302;10.124;2022-08-14T09:29:59;4.77;;;2.40;;
18651;SDS011;9455;54.302;10.124;2022-08-14T09:32:27;7.67;;;2.67;;
18651;SDS011;9455;54.302;10.124;2022-08-14T09:35:02;5.83;;;2.37;;
18651;SDS011;9455;54.302;10.124;2022-08-14T09:37:38;7.17;;;2.43;;
18651;SDS011;9455;54.302;10.124;2022-08-14T09:40:20;3.23;;;2.40;;
18651;SDS011;9455;54.302;10.124;2022-08-14T09:42:56;5.13;;;2.40;;
18651;SDS011;9455;54.302;10.124;2022-08-14T09:45:30;4.67;;;2.20;;
18651;SDS011;9455;54.302;10.124;2022-08-14T09:48:00;6.63;;;2.40;;
18651;SDS011;9455;54.302;10.124;2022-08-14T09:50:27;8.73;;;2.23;;
18651;SDS011;9455;54.302;10.124;2022-08-14T09:52:59;6.27;;;2.43;;
18651;SDS011;9455;54.302;10.124;2022-08-14T09:55:28;2.67;;;2.47;;
18651;SDS011;9455;54.302;10.124;2022-08-14T09:58:05;5.97;;;2.73;;
18651;SDS011;9455;54.302;10.124;2022-08-14T10:00:40;16.97;;;3.33;;
18651;SDS011;9455;54.302;10.124;2022-08-14T10:03:08;4.60;;;2.10;;
18651;SDS011;9455;54.302;10.124;2022-08-14T10:05:35;5.53;;;2.60;;
18651;SDS011;9455;54.302;10.124;2022-08-14T10:08:07;6.70;;;2.43;;
18651;SDS011;9455;54.302;10.124;2022-08-14T10:10:42;5.63;;;2.40;;
18651;SDS011;9455;54.302;10.124;2022-08-14T10:13:19;3.73;;;2.30;;
18651;SDS011;9455;54.302;10.124;2022-08-14T10:15:47;7.27;;;3.13;;
18651;SDS011;9455;54.302;10.124;2022-08-14T10:18:14;4.10;;;2.50;;
18651;SDS011;9455;54.302;10.124;2022-08-14T10:20:43;4.10;;;2.57;;
18651;SDS011;9455;54.302;10.124;2022-08-14T10:23:19;5.67;;;3.00;;
18651;SDS011;9455;54.302;10.124;2022-08-14T10:25:48;4.57;;;3.20;;
18651;SDS011;9455;54.302;10.124;2022-08-14T10:28:16;4.93;;;2.47;;
18651;SDS011;9455;54.302;10.124;2022-08-14T10:30:44;6.30;;;3.10;;
18651;SDS011;9455;54.302;10.124;2022-08-14T10:33:24;5.77;;;3.03;;
18651;SDS011;9455;54.302;10.124;2022-08-14T10:35:51;9.37;;;3.10;;
18651;SDS011;9455;54.302;10.124;2022-08-14T10:38:38;2.90;;;2.73;;
18651;SDS011;9455;54.302;10.124;2022-08-14T10:41:08;14.40;;;3.23;;
18651;SDS011;9455;54.302;10.124;2022-08-14T10:43:37;4.03;;;3.07;;
18651;SDS011;9455;54.302;10.124;2022-08-14T10:46:11;2.83;;;2.63;;
18651;SDS011;9455;54.302;10.124;2022-08-14T10:48:39;13.17;;;3.67;;
18651;SDS011;9455;54.302;10.124;2022-08-14T10:51:06;15.63;;;3.00;;
18651;SDS011;9455;54.302;10.124;2022-08-14T10:53:35;12.60;;;3.03;;
18651;SDS011;9455;54.302;10.124;2022-08-14T10:56:09;13.37;;;3.67;;
18651;SDS011;9455;54.302;10.124;2022-08-14T10:58:37;5.30;;;3.30;;
18651;SDS011;9455;54.302;10.124;2022-08-14T11:01:04;6.27;;;3.73;;
18651;SDS011;9455;54.302;10.124;2022-08-14T11:03:38;7.40;;;3.53;;
18651;SDS011;9455;54.302;10.124;2022-08-14T11:06:10;4.33;;;3.93;;
18651;SDS011;9455;54.302;10.124;2022-08-14T11:08:45;8.73;;;3.93;;
18651;SDS011;9455;54.302;10.124;2022-08-14T11:11:13;6.90;;;3.30;;
18651;SDS011;9455;54.302;10.124;2022-08-14T11:13:41;6.97;;;3.07;;
18651;SDS011;9455;54.302;10.124;2022-08-14T11:16:10;3.93;;;3.70;;
18651;SDS011;9455;54.302;10.124;2022-08-14T11:18:42;3.90;;;3.20;;
18651;SDS011;9455;54.302;10.124;2022-08-14T11:21:13;10.03;;;3.43;;
18651;SDS011;9455;54.302;10.124;2022-08-14T11:23:40;6.10;;;3.37;;
18651;SDS011;9455;54.302;10.124;2022-08-14T11:26:11;7.17;;;3.67;;
18651;SDS011;9455;54.302;10.124;2022-08-14T11:28:39;10.40;;;4.00;;
18651;SDS011;9455;54.302;10.124;2022-08-14T11:31:09;5.07;;;3.07;;
18651;SDS011;9455;54.302;10.124;2022-08-14T11:33:38;3.33;;;3.10;;
18651;SDS011;9455;54.302;10.124;2022-08-14T11:36:06;5.93;;;3.37;;
18651;SDS011;9455;54.302;10.124;2022-08-14T11:38:35;10.00;;;3.93;;
18651;SDS011;9455;54.302;10.124;2022-08-14T11:41:02;3.87;;;3.63;;
18651;SDS011;9455;54.302;10.124;2022-08-14T11:43:30;11.27;;;4.03;;
18651;SDS011;9455;54.302;10.124;2022-08-14T11:45:58;4.70;;;3.40;;
18651;SDS011;9455;54.302;10.124;2022-08-14T11:48:26;3.30;;;3.00;;
18651;SDS011;9455;54.302;10.124;2022-08-14T11:50:53;4.00;;;3.60;;
18651;SDS011;9455;54.302;10.124;2022-08-14T11:53:21;10.03;;;3.47;;
18651;SDS011;9455;54.302;10.124;2022-08-14T11:55:53;4.80;;;3.60;;
18651;SDS011;9455;54.302;10.124;2022-08-14T11:58:24;8.87;;;3.40;;
18651;SDS011;9455;54.302;10.124;2022-08-14T12:00:53;4.97;;;3.00;;
18651;SDS011;9455;54.302;10.124;2022-08-14T12:03:22;14.07;;;3.40;;
18651;SDS011;9455;54.302;10.124;2022-08-14T12:06:02;5.80;;;3.10;;
18651;SDS011;9455;54.302;10.124;2022-08-14T12:08:31;13.73;;;3.77;;
18651;SDS011;9455;54.302;10.124;2022-08-14T12:10:58;3.90;;;2.77;;
18651;SDS011;9455;54.302;10.124;2022-08-14T12:13:26;4.87;;;3.23;;
18651;SDS011;9455;54.302;10.124;2022-08-14T12:15:59;3.00;;;2.80;;
18651;SDS011;9455;54.302;10.124;2022-08-14T12:18:30;2.80;;;2.70;;
18651;SDS011;9455;54.302;10.124;2022-08-14T12:21:08;6.87;;;2.90;;
18651;SDS011;9455;54.302;10.124;2022-08-14T12:23:37;6.60;;;2.53;;
18651;SDS011;9455;54.302;10.124;2022-08-14T12:26:04;9.00;;;2.80;;
18651;SDS011;9455;54.302;10.124;2022-08-14T12:28:32;8.03;;;2.87;;
18651;SDS011;9455;54.302;10.124;2022-08-14T12:31:00;6.10;;;2.77;;
18651;SDS011;9455;54.302;10.124;2022-08-14T12:33:42;3.10;;;2.83;;
18651;SDS011;9455;54.302;10.124;2022-08-14T12:36:20;8.10;;;3.03;;
18651;SDS011;9455;54.302;10.124;2022-08-14T12:38:47;3.27;;;2.97;;
18651;SDS011;9455;54.302;10.124;2022-08-14T12:41:16;5.23;;;3.50;;
18651;SDS011;9455;54.302;10.124;2022-08-14T12:43:44;2.60;;;2.40;;
18651;SDS011;9455;54.302;10.124;2022-08-14T12:46:20;3.23;;;2.90;;
18651;SDS011;9455;54.302;10.124;2022-08-14T12:48:48;4.47;;;2.90;;
18651;SDS011;9455;54.302;10.124;2022-08-14T12:51:16;4.73;;;2.93;;
18651;SDS011;9455;54.302;10.124;2022-08-14T12:53:44;4.20;;;3.23;;
18651;SDS011;9455;54.302;10.124;2022-08-14T12:56:11;4.47;;;2.53;;
18651;SDS011;9455;54.302;10.124;2022-08-14T12:58:45;3.50;;;3.23;;
18651;SDS011;9455;54.302;10.124;2022-08-14T13:01:16;3.20;;;2.93;;
18651;SDS011;9455;54.302;10.124;2022-08-14T13:03:45;4.13;;;3.00;;
18651;SDS011;9455;54.302;10.124;2022-08-14T13:06:13;6.93;;;3.00;;
18651;SDS011;9455;54.302;10.124;2022-08-14T13:08:40;7.03;;;3.30;;
18651;SDS011;9455;54.302;10.124;2022-08-14T13:11:09;12.50;;;3.00;;
18651;SDS011;9455;54.302;10.124;2022-08-14T13:13:37;7.37;;;2.77;;
18651;SDS011;9455;54.302;10.124;2022-08-14T13:16:08;4.33;;;3.17;;
18651;SDS011;9455;54.302;10.124;2022-08-14T13:18:37;5.80;;;2.97;;
18651;SDS011;9455;54.302;10.124;2022-08-14T13:21:07;13.47;;;3.57;;
18651;SDS011;9455;54.302;10.124;2022-08-14T13:23:36;10.37;;;2.90;;
18651;SDS011;9455;54.302;10.124;2022-08-14T13:26:06;4.80;;;2.90;;
18651;SDS011;9455;54.302;10.124;2022-08-14T13:28:33;5.80;;;3.03;;
18651;SDS011;9455;54.302;10.124;2022-08-14T13:31:04;4.77;;;2.80;;
18651;SDS011;9455;54.302;10.124;2022-08-14T13:33:34;4.30;;;2.93;;
18651;SDS011;9455;54.302;10.124;2022-08-14T13:36:01;9.60;;;2.90;;
18651;SDS011;9455;54.302;10.124;2022-08-14T13:38:29;5.27;;;2.50;;
18651;SDS011;9455;54.302;10.124;2022-08-14T13:40:56;4.57;;;2.43;;
18651;SDS011;9455;54.302;10.124;2022-08-14T13:43:23;4.63;;;2.67;;
18651;SDS011;9455;54.302;10.124;2022-08-14T13:45:50;5.50;;;2.50;;
18651;SDS011;9455;54.302;10.124;2022-08-14T13:48:20;7.80;;;2.57;;
18651;SDS011;9455;54.302;10.124;2022-08-14T13:50:47;9.63;;;2.93;;
18651;SDS011;9455;54.302;10.124;2022-08-14T13:53:19;3.00;;;2.70;;
18651;SDS011;9455;54.302;10.124;2022-08-14T13:55:49;3.03;;;2.30;;
18651;SDS011;9455;54.302;10.124;2022-08-14T13:58:16;2.90;;;2.20;;
18651;SDS011;9455;54.302;10.124;2022-08-14T14:00:45;8.70;;;2.73;;
18651;SDS011;9455;54.302;10.124;2022-08-14T14:03:15;4.23;;;2.90;;
18651;SDS011;9455;54.302;10.124;2022-08-14T14:05:43;10.33;;;3.37;;
18651;SDS011;9455;54.302;10.124;2022-08-14T14:08:10;5.60;;;2.40;;
18651;SDS011;9455;54.302;10.124;2022-08-14T14:10:39;2.40;;;2.30;;
18651;SDS011;9455;54.302;10.124;2022-08-14T14:13:08;2.97;;;2.07;;
18651;SDS011;9455;54.302;10.124;2022-08-14T14:15:34;6.17;;;2.53;;
18651;SDS011;9455;54.302;10.124;2022-08-14T14:18:02;5.67;;;2.17;;
18651;SDS011;9455;54.302;10.124;2022-08-14T14:20:28;7.73;;;2.27;;
18651;SDS011;9455;54.302;10.124;2022-08-14T14:22:55;2.07;;;1.97;;
18651;SDS011;9455;54.302;10.124;2022-08-14T14:25:22;9.83;;;2.20;;
18651;SDS011;9455;54.302;10.124;2022-08-14T14:27:50;5.77;;;2.50;;
18651;SDS011;9455;54.302;10.124;2022-08-14T14:30:18;3.40;;;2.30;;
18651;SDS011;9455;54.302;10.124;2022-08-14T14:32:46;4.57;;;2.20;;
18651;SDS011;9455;54.302;10.124;2022-08-14T14:35:14;3.80;;;2.97;;
18651;SDS011;9455;54.302;10.124;2022-08-14T14:37:44;3.83;;;2.20;;
18651;SDS011;9455;54.302;10.124;2022-08-14T14:40:12;8.37;;;2.30;;
18651;SDS011;9455;54.302;10.124;2022-08-14T14:42:44;2.33;;;2.10;;
18651;SDS011;9455;54.302;10.124;2022-08-14T14:45:13;2.60;;;2.40;;
18651;SDS011;9455;54.302;10.124;2022-08-14T14:47:44;6.47;;;2.07;;
18651;SDS011;9455;54.302;10.124;2022-08-14T14:50:12;6.13;;;2.60;;
18651;SDS011;9455;54.302;10.124;2022-08-14T14:52:40;6.47;;;2.30;;
18651;SDS011;9455;54.302;10.124;2022-08-14T14:55:08;4.97;;;2.33;;